DW8913 Weather Reports


Display with metric or nautical units.
time (UTC)temp
F
wind
direction
speed
MPH
gust
MPH
rain 1hr
in
rain 24hr
in
rain mn
in
humidity
%
barometer
mb
20210513083116 51 357 0.0 1.0 0.00 0.00 0.00 61 1023.1
20210513081542 51 36 0.0 0.0 0.00 0.00 0.00 61 1022.9
20210513074706 50 319 0.0 0.0 0.00 0.00 0.00 66 1022.8
20210513073044 50 315 0.0 0.0 0.00 0.00 0.00 65 1022.8
20210513070204 52 304 0.0 0.0 0.00 0.00 0.00 63 1022.8
20210513064644 52 342 0.0 0.0 0.00 0.00 0.00 60 1022.7
20210513063005 52 329 0.0 0.0 0.00 0.00 0.00 62 1022.8
20210513061708 52 350 0.0 0.0 0.00 0.00 0.00 62 1022.8
20210513060044 53 340 0.0 1.0 0.00 0.00 0.00 62 1022.8
20210513054526 52 342 0.0 0.0 0.00 0.00 0.00 67 1022.8
20210513053127 52 321 0.0 0.0 0.00 0.00 0.00 66 1022.7
20210513051535 52 333 0.0 0.0 0.00 0.00 0.00 65 1022.7
20210513044639 52 321 0.0 0.0 0.00 0.00 0.00 64 1022.8
20210513043107 53 323 0.0 0.0 0.00 0.00 0.00 64 1022.7
20210513041506 53 322 0.0 0.0 0.00 0.00 0.00 64 1022.7
20210513040148 53 319 0.0 0.0 0.00 0.00 0.00 63 1022.6
20210513034613 53 295 0.0 0.0 0.00 0.00 0.00 64 1022.6
20210513031556 56 319 0.0 0.0 0.00 0.00 0.00 61 1022.5
20210513030129 56 316 0.0 0.0 0.00 0.00 0.00 60 1022.6
20210513024527 57 315 0.0 0.0 0.00 0.00 0.00 57 1022.6
20210513021546 57 272 0.0 0.0 0.00 0.00 0.00 60 1022.7
20210513020025 58 269 0.0 0.0 0.00 0.00 0.00 60 1022.7
20210513013022 58 230 0.0 0.0 0.00 0.00 0.00 61 1022.5
20210513010209 59 166 0.0 0.0 0.00 0.00 0.00 55 1022.2
20210513004600 60 166 0.0 0.0 0.00 0.00 0.00 58 1022.1
20210513003001 61 129 0.0 0.0 0.00 0.00 0.00 57 1021.9
20210513001548 62 69 0.0 0.0 0.00 0.00 0.00 48 1021.8
20210513000049 63 69 0.0 0.0 0.00 0.00 0.00 44 1021.7
20210512234549 63 69 0.0 0.0 0.00 0.00 0.00 48 1021.4
20210512233040 63 60 0.0 0.0 0.00 0.00 0.00 48 1021.3
20210512231637 65 342 0.0 0.0 0.00 0.00 0.00 42 1021.2
20210512230108 66 63 0.0 0.0 0.00 0.00 0.00 38 1021.2
20210512224600 67 339 0.0 0.0 0.00 0.00 0.00 35 1021.0
20210512223033 67 316 0.0 0.0 0.00 0.00 0.00 36 1021.1
20210512221526 65 234 0.0 0.0 0.00 0.00 0.00 44 1021.2
20210512214615 67 20 0.0 0.0 0.00 0.00 0.00 37 1021.0
20210512213024 67 354 0.0 0.0 0.00 0.00 0.00 35 1020.9
20210512210157 67 329 0.0 0.0 0.00 0.00 0.00 37 1021.0
20210512204549 66 311 0.0 9.0 0.00 0.00 0.00 37 1021.0
20210512201609 64 110 0.0 5.0 0.00 0.00 0.00 46 1021.4
20210512200016 63 234 0.0 7.0 0.00 0.00 0.00 47 1021.4
20210512193146 62 242 0.0 3.0 0.00 0.00 0.00 48 1021.5
20210512191603 61 197 0.0 7.0 0.00 0.00 0.00 50 1021.8
20210512184543 61 250 0.0 10.0 0.00 0.00 0.00 51 1022.3
20210512181701 60 262 0.0 10.0 0.00 0.00 0.00 51 1022.5
20210512180059 60 252 0.0 11.0 0.00 0.00 0.00 52 1022.6
20210512174504 60 273 2.0 10.0 0.00 0.00 0.00 51 1022.5
20210512173157 62 302 0.0 4.0 0.00 0.00 0.00 46 1022.6
20210512171622 61 284 0.0 0.0 0.00 0.00 0.00 47 1023.1
20210512164615 62 188 0.0 0.0 0.00 0.00 0.00 41 1023.2
20210512163040 61 228 0.0 0.0 0.00 0.00 0.00 42 1023.3
20210512160136 59 285 0.0 0.0 0.00 0.00 0.00 44 1023.4
20210512154505 57 278 0.0 4.0 0.00 0.00 0.00 45 1023.6
20210512153134 58 337 0.0 5.0 0.00 0.00 0.00 43 1023.5
20210512151530 57 295 0.0 3.0 0.00 0.00 0.00 45 1023.4
20210512144608 55 316 0.0 4.0 0.00 0.00 0.00 47 1023.5
20210512143105 55 271 0.0 0.0 0.00 0.00 0.00 48 1023.4
20210512141509 53 319 0.0 4.0 0.00 0.00 0.00 48 1023.4
20210512140149 53 319 0.0 4.0 0.00 0.00 0.00 48 1023.4
20210512134553 52 346 0.0 6.0 0.00 0.00 0.00 49 1023.2
20210512133033 52 326 0.0 3.0 0.00 0.00 0.00 49 1023.2
20210512131639 52 304 1.0 6.0 0.00 0.00 0.00 49 1023.4
20210512130041 52 319 0.0 6.0 0.00 0.00 0.00 50 1023.6
20210512124509 51 294 0.0 6.0 0.00 0.00 0.00 49 1023.6
20210512123138 51 317 0.0 2.0 0.00 0.00 0.00 50 1023.5
20210512121624 52 300 0.0 4.0 0.00 0.00 0.00 49 1023.8
20210512120014 51 285 0.0 1.0 0.00 0.00 0.00 48 1023.7
20210512114611 50 289 0.0 0.0 0.00 0.00 0.00 49 1023.6
20210512113106 49 285 0.0 0.0 0.00 0.00 0.00 52 1023.7
20210512111504 48 274 0.0 0.0 0.00 0.00 0.00 52 1023.9
20210512110105 48 281 0.0 0.0 0.00 0.00 0.00 52 1023.8
20210512104524 47 274 0.0 0.0 0.00 0.00 0.00 53 1023.8
20210512101604 46 266 0.0 0.0 0.00 0.00 0.00 54 1023.6
20210512100042 47 306 0.0 0.0 0.00 0.00 0.00 52 1023.5
20210512093056 49 305 0.0 1.0 0.00 0.00 0.00 45 1023.1
20210512091542 49 300 0.0 1.0 0.00 0.00 0.00 44 1023.0
20210512090211 50 332 0.0 3.0 0.00 0.00 0.00 44 1023.0
20210512084557 50 3 1.0 8.0 0.00 0.00 0.00 44 1022.8